Pagrindinis puslapis
METAR-TAF:

METAR-TAF

Oro uostai :

Palmer, Aliaska, Jungtinės Amerikos Valstijos

platuma: 61-36N, ilguma: 149-05W, Aukštis: 74 m

Dabartinis oras

Ataskaita buvo paskelbta 15 minutes, ne 10:53 UTC
Vėjas 4 kt iš Šiaurės/Šiaurės Rytų
Temperatūra -9°C
Drėgmė 85%
Slėgis 1000 hPa
Matomumas: 16.1 km
Išsisklaidę debesys ne aukštis 8000 ft

METAR: PAAQ 261053Z AUTO 03004KT 10SM SCT080 M09/M11 A2952 RMK AO2 SLP002 T10891111 TSNO

Laikas: 02:08 (11:08 UTC)

Prognozė

Ataskaita buvo paskelbta 5 valandos ir 28 minutes, ne 05:40 UTC
Prognozė galioja nuo 26 metu 06 UTC su 27 metu 06 UTC
Vėjas 8 kt iš Šiaurės Rytų
Matomumas: 10 km
Išsisklaidę debesys ne aukštis 800 ft
Išsisklaidę debesys ne aukštis 6000 ft
Su prošvaistėmis ne aukštis 10000 ft
Laikinai
nuo 26 metu 06 UTC su 26 metu 10 UTC
Su prošvaistėmis ne aukštis 600 ft
Apsiniaukę ne aukštis 3500 ft

TAF: PAAQ 260540Z 2606/2706 05008KT P6SM SCT008 SCT060 BKN100 TEMPO 2606/2610 BKN006 OVC035

Orai ataskaitas ir orų prognozės (METAR, TAF).

turimą stotys yra geltonos ir raudonos taškus žemėlapyje.

Perkelti pele per norėdami pamatyti stoties vardą.

Tada spustelėkite, norėdami matyti oro stebėjimo ir prognozės.

Norėdami pakeisti žemėlapį: spustelėkite ant žalios mygtukų su juodo kryžiaus žemyn,; žalią mygtuką su brūkšneliu, jei norite nutolinti; arba žalių rodyklių gretimoms žemėlapius.


METAR-TAF: